createdAt,value
2018-09-05T00:00:05.579Z,18.92
2018-09-05T00:02:33.256Z,18.92
2018-09-05T00:05:00.927Z,18.87
2018-09-05T00:07:28.576Z,18.85
2018-09-05T00:09:56.301Z,18.85
2018-09-05T00:12:23.971Z,18.82
2018-09-05T00:14:51.627Z,18.81
2018-09-05T00:17:19.237Z,18.75
2018-09-05T00:19:46.897Z,18.70
2018-09-05T00:22:14.534Z,18.67
2018-09-05T00:24:42.161Z,18.64
2018-09-05T00:27:09.816Z,18.61
2018-09-05T00:29:37.439Z,18.61
2018-09-05T00:32:05.283Z,18.59
2018-09-05T00:34:32.999Z,18.62
2018-09-05T00:37:00.657Z,18.55
2018-09-05T00:39:28.283Z,18.51
2018-09-05T00:41:55.933Z,18.46
2018-09-05T00:44:23.617Z,18.48
2018-09-05T00:46:51.275Z,18.48
2018-09-05T00:49:18.937Z,18.43
2018-09-05T00:51:46.528Z,18.43
2018-09-05T00:54:14.177Z,18.40
2018-09-05T00:56:41.840Z,18.37
2018-09-05T00:59:09.460Z,18.34
2018-09-05T01:01:37.086Z,18.32
2018-09-05T01:04:04.806Z,18.31
2018-09-05T01:06:32.588Z,18.31
2018-09-05T01:09:00.192Z,18.29
2018-09-05T01:11:27.859Z,18.26
2018-09-05T01:13:55.472Z,18.29
2018-09-05T01:16:23.340Z,18.26
2018-09-05T01:18:50.989Z,18.23
2018-09-05T01:21:18.644Z,18.19
2018-09-05T01:23:46.282Z,18.18
2018-09-05T01:26:13.943Z,18.16
2018-09-05T01:28:41.632Z,18.13
2018-09-05T01:31:09.279Z,18.11
2018-09-05T01:33:37.234Z,18.12
2018-09-05T01:36:18.319Z,18.13
2018-09-05T01:38:45.985Z,18.05
2018-09-05T01:41:14.558Z,18.08
2018-09-05T01:43:42.726Z,18.03
2018-09-05T01:46:10.521Z,17.97
2018-09-05T01:48:38.687Z,17.95
2018-09-05T01:51:06.364Z,17.94
2018-09-05T01:53:34.482Z,17.92
2018-09-05T01:56:02.804Z,17.91
2018-09-05T01:58:30.645Z,17.92
2018-09-05T02:00:58.312Z,17.90
2018-09-05T02:03:26.017Z,17.90
2018-09-05T02:05:53.636Z,17.88
2018-09-05T02:08:21.319Z,17.84
2018-09-05T02:10:49.060Z,17.79
2018-09-05T02:13:16.697Z,17.74
2018-09-05T02:15:44.375Z,17.75
2018-09-05T02:18:12.021Z,17.77
2018-09-05T02:20:39.651Z,17.79
2018-09-05T02:23:07.368Z,17.72
2018-09-05T02:25:35.097Z,17.71
2018-09-05T02:28:02.787Z,17.70
2018-09-05T02:30:30.444Z,17.67
2018-09-05T02:32:58.095Z,17.66
2018-09-05T02:35:25.747Z,17.62
2018-09-05T02:37:53.479Z,17.59
2018-09-05T02:40:21.139Z,17.60
2018-09-05T02:42:48.788Z,17.64
2018-09-05T02:45:16.472Z,17.62
2018-09-05T02:47:44.150Z,17.61
2018-09-05T02:50:11.800Z,17.57
2018-09-05T02:52:39.544Z,17.52
2018-09-05T02:55:07.220Z,17.47
2018-09-05T02:57:34.855Z,17.41
2018-09-05T03:00:02.563Z,17.40
2018-09-05T03:02:30.196Z,17.39
2018-09-05T03:04:57.805Z,17.42
2018-09-05T03:07:25.498Z,17.39
2018-09-05T03:09:53.155Z,17.41
2018-09-05T03:12:21.675Z,17.44
2018-09-05T03:14:50.795Z,17.40
2018-09-05T03:17:18.623Z,17.40
2018-09-05T03:19:46.267Z,17.39
2018-09-05T03:22:13.990Z,17.39
2018-09-05T03:24:41.673Z,17.40
2018-09-05T03:27:09.293Z,17.40
2018-09-05T03:29:36.972Z,17.43
2018-09-05T03:32:04.724Z,17.44
2018-09-05T03:34:32.382Z,17.41
2018-09-05T03:37:00.033Z,17.41
2018-09-05T03:39:27.636Z,17.38
2018-09-05T03:41:55.270Z,17.37
2018-09-05T03:44:22.953Z,17.36
2018-09-05T03:46:50.567Z,17.37
2018-09-05T03:49:18.209Z,17.32
2018-09-05T03:51:45.879Z,17.32
2018-09-05T03:54:13.559Z,17.28
2018-09-05T03:56:41.254Z,17.27
2018-09-05T03:59:09.006Z,17.28
2018-09-05T04:01:36.671Z,17.26
2018-09-05T04:04:04.342Z,17.25
2018-09-05T04:06:32.012Z,17.23
2018-09-05T04:08:59.668Z,17.26
2018-09-05T04:11:27.330Z,17.27
2018-09-05T04:13:55.048Z,17.27
2018-09-05T04:16:22.707Z,17.25
2018-09-05T04:18:50.361Z,17.24
2018-09-05T04:21:18.070Z,17.22
2018-09-05T04:23:46.803Z,17.20
2018-09-05T04:26:15.699Z,17.21
2018-09-05T04:28:43.459Z,17.18
2018-09-05T04:31:12.424Z,17.17
2018-09-05T04:33:40.532Z,17.17
2018-09-05T04:36:09.446Z,17.15
2018-09-05T04:38:37.067Z,17.18
2018-09-05T04:41:04.721Z,17.17
2018-09-05T04:43:32.390Z,17.17
2018-09-05T04:46:00.029Z,17.20
2018-09-05T04:48:27.696Z,17.15
2018-09-05T04:50:55.397Z,17.12
2018-09-05T04:53:23.103Z,17.12
2018-09-05T04:55:51.407Z,17.08
2018-09-05T04:58:19.133Z,17.11
2018-09-05T05:00:46.756Z,17.13
2018-09-05T05:03:14.531Z,17.14
2018-09-05T05:05:42.269Z,17.16
2018-09-05T05:08:09.861Z,17.20
2018-09-05T05:10:37.544Z,17.22
2018-09-05T05:13:05.312Z,17.23
2018-09-05T05:15:33.016Z,17.25
2018-09-05T05:18:00.676Z,17.33
2018-09-05T05:20:30.458Z,17.44
2018-09-05T05:22:58.100Z,17.53
2018-09-05T05:25:25.752Z,17.65
2018-09-05T05:27:53.551Z,17.72
2018-09-05T05:30:21.330Z,17.81
2018-09-05T05:32:49.216Z,17.86
2018-09-05T05:35:16.880Z,17.90
2018-09-05T05:37:44.508Z,17.91
2018-09-05T05:40:12.203Z,17.96
2018-09-05T05:42:39.851Z,18.01
2018-09-05T05:45:07.524Z,18.08
2018-09-05T05:47:35.276Z,18.25
2018-09-05T05:50:03.519Z,18.46
2018-09-05T05:52:31.691Z,18.62
2018-09-05T05:54:59.698Z,18.70
2018-09-05T05:57:27.692Z,18.85
2018-09-05T05:59:55.329Z,19.05
2018-09-05T06:02:22.985Z,19.19
2018-09-05T06:04:50.791Z,19.23
2018-09-05T06:07:18.429Z,19.34
2018-09-05T06:09:46.085Z,19.40
2018-09-05T06:12:13.894Z,19.57
2018-09-05T06:14:41.566Z,19.70
2018-09-05T06:17:09.302Z,19.87
2018-09-05T06:19:37.024Z,20.04
2018-09-05T06:22:04.779Z,20.13
2018-09-05T06:24:32.998Z,20.08
2018-09-05T06:27:00.719Z,20.18
2018-09-05T06:29:28.435Z,20.34
2018-09-05T06:31:56.081Z,20.34
2018-09-05T06:34:23.775Z,20.20
2018-09-05T06:36:51.439Z,20.33
2018-09-05T06:39:19.107Z,20.84
2018-09-05T06:41:46.764Z,21.16
2018-09-05T06:44:14.424Z,21.42
2018-09-05T06:46:42.084Z,21.64
2018-09-05T06:49:09.980Z,21.82
2018-09-05T06:51:37.642Z,21.88
2018-09-05T06:54:05.348Z,22.01
2018-09-05T06:56:33.044Z,21.83
2018-09-05T06:59:00.790Z,21.64
2018-09-05T07:01:28.444Z,21.57
2018-09-05T07:03:56.143Z,21.65
2018-09-05T07:06:23.795Z,21.97
2018-09-05T07:08:51.458Z,22.18
2018-09-05T07:11:19.184Z,22.25
2018-09-05T07:13:46.908Z,22.58
2018-09-05T07:16:14.577Z,22.98
2018-09-05T07:18:42.313Z,23.15
2018-09-05T07:21:10.196Z,23.03
2018-09-05T07:23:37.840Z,22.75
2018-09-05T07:26:05.692Z,22.86
2018-09-05T07:28:33.377Z,23.04
2018-09-05T07:31:01.142Z,23.31
2018-09-05T07:33:28.751Z,23.52
2018-09-05T07:35:56.387Z,23.67
2018-09-05T07:38:24.026Z,23.57
2018-09-05T07:40:51.779Z,23.62
2018-09-05T07:43:19.403Z,24.01
2018-09-05T07:45:47.041Z,24.33
2018-09-05T07:48:14.772Z,24.85
2018-09-05T07:50:42.444Z,25.20
2018-09-05T07:53:10.040Z,25.80
2018-09-05T07:55:37.732Z,25.98
2018-09-05T07:58:05.847Z,26.39
2018-09-05T08:00:33.521Z,26.80
2018-09-05T08:03:01.277Z,27.51
2018-09-05T08:05:28.897Z,28.15
2018-09-05T08:07:56.500Z,28.73
2018-09-05T08:10:24.189Z,29.44
2018-09-05T08:12:51.837Z,30.11
2018-09-05T08:15:19.495Z,30.64
2018-09-05T08:17:47.173Z,30.91
2018-09-05T08:20:14.796Z,31.50
2018-09-05T08:22:42.529Z,32.07
2018-09-05T08:25:10.190Z,32.61
2018-09-05T08:27:37.871Z,32.60
2018-09-05T08:30:05.694Z,32.81
2018-09-05T08:32:33.381Z,33.02
2018-09-05T08:35:01.188Z,33.17
2018-09-05T08:37:28.900Z,32.90
2018-09-05T08:39:56.406Z,33.16
2018-09-05T08:42:24.204Z,33.44
2018-09-05T08:44:52.003Z,33.62
2018-09-05T08:47:19.573Z,34.08
2018-09-05T08:49:47.223Z,34.28
2018-09-05T08:52:14.881Z,34.41
2018-09-05T08:54:42.597Z,34.55
2018-09-05T08:57:10.265Z,34.84
2018-09-05T08:59:37.921Z,35.01
2018-09-05T09:02:05.728Z,35.19
2018-09-05T09:04:33.412Z,35.12
2018-09-05T09:07:01.056Z,35.10
2018-09-05T09:09:28.744Z,34.93
2018-09-05T09:11:56.409Z,34.86
2018-09-05T09:14:24.104Z,34.80
2018-09-05T09:16:51.848Z,34.97
2018-09-05T09:19:19.471Z,35.20
2018-09-05T09:21:47.122Z,35.48
2018-09-05T09:24:14.889Z,35.67
2018-09-05T09:26:42.547Z,35.57
2018-09-05T09:29:10.205Z,35.53
2018-09-05T09:31:37.887Z,35.73
2018-09-05T09:34:05.555Z,36.00
2018-09-05T09:36:33.164Z,35.84
2018-09-05T09:39:00.829Z,35.54
2018-09-05T09:41:28.472Z,35.24
2018-09-05T09:43:56.110Z,35.32
2018-09-05T09:46:23.832Z,35.46
2018-09-05T09:48:51.614Z,35.31
2018-09-05T09:51:21.400Z,35.29
2018-09-05T09:53:49.171Z,35.65
2018-09-05T09:56:16.786Z,35.80
2018-09-05T09:58:44.464Z,35.97
2018-09-05T10:01:17.694Z,36.14
2018-09-05T10:03:50.865Z,36.13
2018-09-05T10:06:19.622Z,36.30
2018-09-05T10:08:52.863Z,36.22
2018-09-05T10:11:25.053Z,36.61
2018-09-05T10:13:58.351Z,36.36
2018-09-05T10:16:31.456Z,36.69
2018-09-05T10:18:59.157Z,37.07
2018-09-05T10:21:26.789Z,37.48
2018-09-05T10:23:54.472Z,37.58
2018-09-05T10:26:22.101Z,37.28
2018-09-05T10:28:49.744Z,37.31
2018-09-05T10:31:17.455Z,37.50
2018-09-05T10:33:45.068Z,37.46
2018-09-05T10:36:12.676Z,37.35
2018-09-05T10:38:40.329Z,37.78
2018-09-05T10:41:07.971Z,38.07
2018-09-05T10:43:35.630Z,38.27
2018-09-05T10:46:03.305Z,38.49
2018-09-05T10:48:31.009Z,38.87
2018-09-05T10:50:58.634Z,38.54
2018-09-05T10:53:26.313Z,38.76
2018-09-05T10:55:54.027Z,39.42
2018-09-05T10:58:21.745Z,39.74
2018-09-05T11:00:49.429Z,39.99
2018-09-05T11:03:17.341Z,40.44
2018-09-05T11:05:45.023Z,40.80
2018-09-05T11:08:12.704Z,40.73
2018-09-05T11:10:40.342Z,40.81
2018-09-05T11:13:08.004Z,40.82
2018-09-05T11:15:35.719Z,40.70
2018-09-05T11:18:03.560Z,40.95
2018-09-05T11:20:31.327Z,41.47
2018-09-05T11:22:58.997Z,41.82
2018-09-05T11:25:26.633Z,41.68
2018-09-05T11:27:54.284Z,41.16
2018-09-05T11:30:21.941Z,41.63
2018-09-05T11:32:49.583Z,42.13
2018-09-05T11:35:17.202Z,42.11
2018-09-05T11:37:44.857Z,42.47
2018-09-05T11:40:12.604Z,42.41
2018-09-05T11:42:40.204Z,42.81
2018-09-05T11:45:07.866Z,43.01
2018-09-05T11:47:35.507Z,43.17
2018-09-05T11:50:03.473Z,43.70
2018-09-05T11:52:31.108Z,43.14
2018-09-05T11:54:58.804Z,43.62
2018-09-05T11:57:26.473Z,44.30
2018-09-05T11:59:54.165Z,44.56
2018-09-05T12:02:21.941Z,44.66
2018-09-05T12:04:49.551Z,44.81
2018-09-05T12:07:17.292Z,44.89
2018-09-05T12:09:44.914Z,44.66
2018-09-05T12:12:12.676Z,45.12
2018-09-05T12:14:40.338Z,45.63
2018-09-05T12:17:08.360Z,45.54
2018-09-05T12:19:36.006Z,45.51
2018-09-05T12:22:03.677Z,45.41
2018-09-05T12:24:31.328Z,45.47
2018-09-05T12:26:58.964Z,45.58
2018-09-05T12:29:29.566Z,45.33
2018-09-05T12:31:57.201Z,45.41
2018-09-05T12:34:24.804Z,45.61
2018-09-05T12:36:52.503Z,45.89
2018-09-05T12:39:20.142Z,43.22
2018-09-05T12:41:47.762Z,41.09
2018-09-05T12:44:15.421Z,39.80
2018-09-05T12:46:43.042Z,38.65
2018-09-05T12:49:10.697Z,38.14
2018-09-05T12:51:38.477Z,37.94
2018-09-05T12:54:06.832Z,37.57
2018-09-05T12:56:34.451Z,39.63
2018-09-05T12:59:02.128Z,41.04
2018-09-05T13:01:29.733Z,42.00
2018-09-05T13:03:57.424Z,42.55
2018-09-05T13:06:25.068Z,43.19
2018-09-05T13:08:52.701Z,41.69
2018-09-05T13:11:20.339Z,39.49
2018-09-05T13:13:48.015Z,40.83
2018-09-05T13:16:15.688Z,40.34
2018-09-05T13:18:43.332Z,38.41
2018-09-05T13:21:11.145Z,37.61
2018-09-05T13:23:38.877Z,37.32
2018-09-05T13:26:06.515Z,39.03
2018-09-05T13:28:34.179Z,40.80
2018-09-05T13:31:01.786Z,41.48
2018-09-05T13:33:29.418Z,42.29
2018-09-05T13:35:57.152Z,42.94
2018-09-05T13:38:24.834Z,43.00
2018-09-05T13:40:52.424Z,43.38
2018-09-05T13:43:20.085Z,43.64
2018-09-05T13:45:47.682Z,43.70
2018-09-05T13:48:15.296Z,43.78
2018-09-05T13:50:43.049Z,43.71
2018-09-05T13:53:10.655Z,43.67
2018-09-05T13:55:38.271Z,43.83
2018-09-05T13:58:06.021Z,43.68
2018-09-05T14:00:33.629Z,43.85
2018-09-05T14:03:01.241Z,43.86
2018-09-05T14:05:29.008Z,43.23
2018-09-05T14:07:56.627Z,41.38
2018-09-05T14:10:24.238Z,39.48
2018-09-05T14:12:51.909Z,38.50
2018-09-05T14:15:19.532Z,37.14
2018-09-05T14:17:47.175Z,37.49
2018-09-05T14:20:14.993Z,36.22
2018-09-05T14:22:42.641Z,36.03
2018-09-05T14:25:10.269Z,36.36
2018-09-05T14:27:38.029Z,36.32
2018-09-05T14:30:05.661Z,35.77
2018-09-05T14:32:33.292Z,36.94
2018-09-05T14:35:00.980Z,38.14
2018-09-05T14:37:28.608Z,38.85
2018-09-05T14:39:56.259Z,39.48
2018-09-05T14:42:23.899Z,40.01
2018-09-05T14:44:51.519Z,39.96
2018-09-05T14:47:19.132Z,40.10
2018-09-05T14:49:46.860Z,40.10
2018-09-05T14:52:14.478Z,40.25
2018-09-05T14:54:42.109Z,40.64
2018-09-05T14:57:09.782Z,40.55
2018-09-05T14:59:37.432Z,40.61
2018-09-05T15:02:05.104Z,40.73
2018-09-05T15:04:32.756Z,40.33
2018-09-05T15:07:00.480Z,40.13
2018-09-05T15:09:28.112Z,40.00
2018-09-05T15:11:55.866Z,39.86
2018-09-05T15:14:23.476Z,39.79
2018-09-05T15:16:51.163Z,39.53
2018-09-05T15:19:18.800Z,39.25
2018-09-05T15:21:46.496Z,39.13
2018-09-05T15:24:14.124Z,39.06
2018-09-05T15:26:41.793Z,38.73
2018-09-05T15:29:09.412Z,38.50
2018-09-05T15:31:37.035Z,38.35
2018-09-05T15:34:04.824Z,38.10
2018-09-05T15:36:32.446Z,37.75
2018-09-05T15:39:00.063Z,37.38
2018-09-05T15:41:27.728Z,37.16
2018-09-05T15:43:55.346Z,36.99
2018-09-05T15:46:23.004Z,36.58
2018-09-05T15:48:50.669Z,36.40
2018-09-05T15:51:18.343Z,35.85
2018-09-05T15:53:46.014Z,35.42
2018-09-05T15:56:13.652Z,34.96
2018-09-05T15:58:41.288Z,34.62
2018-09-05T16:01:08.925Z,34.18
2018-09-05T16:03:36.764Z,33.77
2018-09-05T16:06:04.532Z,33.29
2018-09-05T16:08:32.155Z,32.81
2018-09-05T16:10:59.802Z,32.40
2018-09-05T16:13:27.470Z,31.96
2018-09-05T16:15:55.083Z,31.55
2018-09-05T16:18:22.736Z,31.14
2018-09-05T16:20:50.367Z,30.78
2018-09-05T16:23:18.000Z,30.35
2018-09-05T16:25:45.656Z,30.03
2018-09-05T16:28:13.276Z,29.79
2018-09-05T16:30:40.920Z,29.62
2018-09-05T16:33:08.588Z,29.36
2018-09-05T16:35:36.253Z,29.24
2018-09-05T16:38:04.050Z,29.03
2018-09-05T16:40:31.817Z,28.85
2018-09-05T16:42:59.467Z,28.63
2018-09-05T16:45:27.107Z,28.48
2018-09-05T16:47:54.840Z,28.35
2018-09-05T16:50:22.896Z,28.21
2018-09-05T16:52:50.508Z,28.07
2018-09-05T16:55:18.187Z,28.01
2018-09-05T16:57:45.815Z,27.89
2018-09-05T17:00:13.515Z,27.75
2018-09-05T17:02:41.206Z,27.60
2018-09-05T17:05:08.886Z,27.50
2018-09-05T17:07:36.571Z,27.41
2018-09-05T17:10:04.399Z,27.31
2018-09-05T17:12:32.037Z,27.22
2018-09-05T17:14:59.663Z,27.09
2018-09-05T17:17:27.345Z,27.01
2018-09-05T17:19:55.071Z,26.92
2018-09-05T17:22:22.810Z,26.80
2018-09-05T17:24:50.502Z,26.73
2018-09-05T17:27:18.180Z,26.64
2018-09-05T17:29:45.883Z,26.49
2018-09-05T17:32:13.576Z,26.38
2018-09-05T17:34:41.266Z,26.27
2018-09-05T17:37:08.983Z,26.20
2018-09-05T17:39:36.726Z,26.07
2018-09-05T17:42:04.428Z,25.98
2018-09-05T17:44:32.075Z,25.90
2018-09-05T17:46:59.764Z,25.81
2018-09-05T17:49:27.423Z,25.74
2018-09-05T17:51:55.119Z,25.63
2018-09-05T17:54:22.821Z,25.59
2018-09-05T17:56:50.520Z,25.45
2018-09-05T17:59:18.190Z,25.36
2018-09-05T18:01:45.946Z,25.28
2018-09-05T18:04:13.589Z,25.16
2018-09-05T18:06:41.236Z,25.07
2018-09-05T18:09:09.887Z,24.96
2018-09-05T18:11:37.547Z,24.85
2018-09-05T18:14:05.253Z,24.76
2018-09-05T18:16:32.894Z,24.68
2018-09-05T18:19:00.789Z,24.60
2018-09-05T18:21:28.645Z,24.47
2018-09-05T18:23:56.349Z,24.39
2018-09-05T18:26:23.988Z,24.29
2018-09-05T18:28:51.788Z,24.22
2018-09-05T18:31:19.606Z,24.15
2018-09-05T18:33:47.264Z,24.09
2018-09-05T18:36:14.916Z,24.00
2018-09-05T18:38:42.586Z,23.92
2018-09-05T18:41:10.327Z,23.89
2018-09-05T18:43:38.000Z,23.83
2018-09-05T18:46:05.808Z,23.79
2018-09-05T18:48:33.491Z,23.76
2018-09-05T18:51:01.433Z,23.65
2018-09-05T18:53:29.297Z,23.63
2018-09-05T18:55:57.009Z,23.53
2018-09-05T18:58:24.791Z,23.47
2018-09-05T19:00:52.495Z,23.41
2018-09-05T19:03:20.209Z,23.35
2018-09-05T19:05:47.883Z,23.31
2018-09-05T19:08:15.612Z,23.26
2018-09-05T19:10:43.292Z,23.19
2018-09-05T19:13:10.982Z,23.14
2018-09-05T19:15:38.692Z,23.08
2018-09-05T19:18:06.346Z,23.02
2018-09-05T19:20:34.031Z,22.99
2018-09-05T19:23:01.759Z,22.96
2018-09-05T19:25:29.404Z,22.91
2018-09-05T19:27:57.064Z,22.87
2018-09-05T19:30:24.780Z,22.85
2018-09-05T19:32:52.527Z,22.81
2018-09-05T19:35:20.153Z,22.78
2018-09-05T19:37:47.845Z,22.77
2018-09-05T19:40:15.509Z,22.74
2018-09-05T19:42:43.129Z,22.72
2018-09-05T19:45:10.852Z,22.67
2018-09-05T19:47:38.514Z,22.64
2018-09-05T19:50:06.501Z,22.63
2018-09-05T19:52:34.608Z,22.63
2018-09-05T19:55:02.305Z,22.60
2018-09-05T19:57:29.980Z,22.55
2018-09-05T19:59:57.694Z,22.53
2018-09-05T20:02:25.424Z,22.49
2018-09-05T20:04:53.326Z,22.50
2018-09-05T20:07:21.049Z,22.47
2018-09-05T20:09:48.854Z,22.42
2018-09-05T20:12:16.507Z,22.37
2018-09-05T20:14:44.156Z,22.30
2018-09-05T20:17:11.925Z,22.28
2018-09-05T20:19:39.727Z,22.23
2018-09-05T20:22:10.529Z,22.15
2018-09-05T20:24:39.946Z,22.13
2018-09-05T20:27:08.050Z,22.07
2018-09-05T20:29:35.959Z,22.03
2018-09-05T20:32:03.675Z,22.01
2018-09-05T20:34:31.516Z,21.96
2018-09-05T20:37:00.273Z,21.91
2018-09-05T20:39:27.931Z,21.85
2018-09-05T20:41:55.572Z,21.83
2018-09-05T20:44:23.250Z,21.78
2018-09-05T20:46:50.936Z,21.75
2018-09-05T20:49:18.629Z,21.69
2018-09-05T20:51:46.356Z,21.63
2018-09-05T20:54:14.032Z,21.56
2018-09-05T20:56:41.682Z,21.56
2018-09-05T20:59:09.372Z,21.53
2018-09-05T21:01:37.058Z,21.51
2018-09-05T21:04:04.716Z,21.46
2018-09-05T21:06:32.485Z,21.41
2018-09-05T21:09:00.150Z,21.35
2018-09-05T21:11:28.016Z,21.33
2018-09-05T21:13:55.723Z,21.29
2018-09-05T21:16:23.446Z,21.25
2018-09-05T21:18:51.202Z,21.24
2018-09-05T21:21:18.968Z,21.18
2018-09-05T21:23:47.623Z,21.15
2018-09-05T21:26:15.345Z,21.08
2018-09-05T21:28:43.181Z,21.08
2018-09-05T21:31:11.000Z,21.02
2018-09-05T21:33:38.756Z,20.94
2018-09-05T21:36:06.469Z,20.92
2018-09-05T21:38:34.179Z,20.89
2018-09-05T21:41:01.823Z,20.85
2018-09-05T21:43:29.615Z,20.85
2018-09-05T21:45:57.332Z,20.83
2018-09-05T21:48:24.982Z,20.81
2018-09-05T21:50:52.628Z,20.77
2018-09-05T21:53:20.294Z,20.76
2018-09-05T21:55:47.908Z,20.74
2018-09-05T21:58:15.561Z,20.69
2018-09-05T22:00:43.978Z,20.63
2018-09-05T22:03:11.604Z,20.58
2018-09-05T22:05:40.375Z,20.50
2018-09-05T22:08:08.135Z,20.50
2018-09-05T22:10:36.768Z,20.48
2018-09-05T22:13:04.455Z,20.47
2018-09-05T22:15:37.518Z,20.44
2018-09-05T22:18:05.269Z,20.46
2018-09-05T22:20:32.899Z,20.39
2018-09-05T22:23:00.583Z,20.39
2018-09-05T22:25:28.318Z,20.32
2018-09-05T22:27:56.063Z,20.26
2018-09-05T22:30:23.749Z,20.22
2018-09-05T22:32:51.515Z,20.20
2018-09-05T22:35:19.154Z,20.15
2018-09-05T22:37:46.840Z,20.14
2018-09-05T22:40:14.540Z,20.16
2018-09-05T22:42:53.283Z,20.17
2018-09-05T22:45:31.912Z,20.17
2018-09-05T22:50:20.275Z,20.17
2018-09-05T22:53:01.580Z,20.12
2018-09-05T22:57:47.029Z,20.12
2018-09-05T23:00:25.929Z,20.03
2018-09-05T23:07:09.613Z,20.01
2018-09-05T23:09:48.307Z,19.91
2018-09-05T23:12:27.117Z,19.85
2018-09-05T23:15:06.387Z,19.84
2018-09-05T23:18:46.949Z,19.82
2018-09-05T23:21:16.421Z,19.79
2018-09-05T23:23:54.842Z,19.80
2018-09-05T23:26:22.655Z,19.77
2018-09-05T23:28:50.407Z,19.77
2018-09-05T23:31:18.354Z,19.81
2018-09-05T23:33:45.979Z,19.78
2018-09-05T23:36:14.075Z,19.73
2018-09-05T23:38:41.737Z,19.69
2018-09-05T23:41:09.504Z,19.65
2018-09-05T23:43:37.127Z,19.70
2018-09-05T23:46:04.901Z,19.69
2018-09-05T23:48:32.505Z,19.70
2018-09-05T23:51:00.101Z,19.73
2018-09-05T23:53:27.780Z,19.77
2018-09-05T23:55:55.383Z,19.83
2018-09-05T23:58:23.501Z,19.85
